sensor_id;sensor_type;location;lat;lon;timestamp;P1;durP1;ratioP1;P2;durP2;ratioP2
19495;SDS011;9888;48.606;9.630;2022-07-12T00:00:05;10.03;;;5.93;;
19495;SDS011;9888;48.606;9.630;2022-07-12T00:02:35;11.53;;;6.40;;
19495;SDS011;9888;48.606;9.630;2022-07-12T00:05:02;12.40;;;7.13;;
19495;SDS011;9888;48.606;9.630;2022-07-12T00:07:32;10.87;;;6.37;;
19495;SDS011;9888;48.606;9.630;2022-07-12T00:10:00;9.73;;;6.00;;
19495;SDS011;9888;48.606;9.630;2022-07-12T00:12:28;10.37;;;6.50;;
19495;SDS011;9888;48.606;9.630;2022-07-12T00:14:56;10.40;;;6.10;;
19495;SDS011;9888;48.606;9.630;2022-07-12T00:17:24;11.73;;;6.63;;
19495;SDS011;9888;48.606;9.630;2022-07-12T00:19:51;10.10;;;6.27;;
19495;SDS011;9888;48.606;9.630;2022-07-12T00:22:18;11.70;;;6.27;;
19495;SDS011;9888;48.606;9.630;2022-07-12T00:24:48;10.63;;;6.50;;
19495;SDS011;9888;48.606;9.630;2022-07-12T00:27:16;12.70;;;6.67;;
19495;SDS011;9888;48.606;9.630;2022-07-12T00:29:43;11.10;;;6.70;;
19495;SDS011;9888;48.606;9.630;2022-07-12T00:32:11;10.50;;;7.00;;
19495;SDS011;9888;48.606;9.630;2022-07-12T00:34:38;12.67;;;5.87;;
19495;SDS011;9888;48.606;9.630;2022-07-12T00:37:05;12.10;;;6.10;;
19495;SDS011;9888;48.606;9.630;2022-07-12T00:39:33;10.57;;;6.27;;
19495;SDS011;9888;48.606;9.630;2022-07-12T00:42:00;10.80;;;6.30;;
19495;SDS011;9888;48.606;9.630;2022-07-12T00:44:28;9.83;;;5.97;;
19495;SDS011;9888;48.606;9.630;2022-07-12T00:46:57;11.50;;;6.70;;
19495;SDS011;9888;48.606;9.630;2022-07-12T00:49:25;16.53;;;6.70;;
19495;SDS011;9888;48.606;9.630;2022-07-12T00:51:52;11.20;;;6.00;;
19495;SDS011;9888;48.606;9.630;2022-07-12T00:54:22;10.97;;;6.60;;
19495;SDS011;9888;48.606;9.630;2022-07-12T00:56:51;10.90;;;6.83;;
19495;SDS011;9888;48.606;9.630;2022-07-12T00:59:18;10.77;;;6.03;;
19495;SDS011;9888;48.606;9.630;2022-07-12T01:01:46;11.37;;;6.60;;
19495;SDS011;9888;48.606;9.630;2022-07-12T01:04:14;11.10;;;6.13;;
19495;SDS011;9888;48.606;9.630;2022-07-12T01:06:43;10.80;;;6.53;;
19495;SDS011;9888;48.606;9.630;2022-07-12T01:09:12;12.87;;;6.03;;
19495;SDS011;9888;48.606;9.630;2022-07-12T01:11:40;11.90;;;6.60;;
19495;SDS011;9888;48.606;9.630;2022-07-12T01:14:10;12.70;;;7.23;;
19495;SDS011;9888;48.606;9.630;2022-07-12T01:16:39;10.30;;;6.20;;
19495;SDS011;9888;48.606;9.630;2022-07-12T01:19:06;10.40;;;6.13;;
19495;SDS011;9888;48.606;9.630;2022-07-12T01:21:34;10.53;;;6.23;;
19495;SDS011;9888;48.606;9.630;2022-07-12T01:24:04;9.93;;;6.10;;
19495;SDS011;9888;48.606;9.630;2022-07-12T01:26:35;11.50;;;6.30;;
19495;SDS011;9888;48.606;9.630;2022-07-12T01:29:02;11.47;;;6.80;;
19495;SDS011;9888;48.606;9.630;2022-07-12T01:31:30;11.87;;;6.93;;
19495;SDS011;9888;48.606;9.630;2022-07-12T01:33:57;11.43;;;6.33;;
19495;SDS011;9888;48.606;9.630;2022-07-12T01:36:24;11.67;;;6.60;;
19495;SDS011;9888;48.606;9.630;2022-07-12T01:38:51;10.93;;;6.07;;
19495;SDS011;9888;48.606;9.630;2022-07-12T01:41:18;11.77;;;6.67;;
19495;SDS011;9888;48.606;9.630;2022-07-12T01:43:46;10.70;;;6.50;;
19495;SDS011;9888;48.606;9.630;2022-07-12T01:46:14;13.50;;;7.33;;
19495;SDS011;9888;48.606;9.630;2022-07-12T01:48:42;13.20;;;7.00;;
19495;SDS011;9888;48.606;9.630;2022-07-12T01:51:09;12.00;;;6.53;;
19495;SDS011;9888;48.606;9.630;2022-07-12T01:53:36;12.00;;;6.37;;
19495;SDS011;9888;48.606;9.630;2022-07-12T01:56:04;12.00;;;6.27;;
19495;SDS011;9888;48.606;9.630;2022-07-12T01:58:32;11.30;;;6.67;;
19495;SDS011;9888;48.606;9.630;2022-07-12T02:00:59;13.30;;;5.97;;
19495;SDS011;9888;48.606;9.630;2022-07-12T02:03:27;12.40;;;7.33;;
19495;SDS011;9888;48.606;9.630;2022-07-12T02:05:54;10.97;;;6.20;;
19495;SDS011;9888;48.606;9.630;2022-07-12T02:08:22;11.40;;;6.47;;
19495;SDS011;9888;48.606;9.630;2022-07-12T02:10:49;15.83;;;6.67;;
19495;SDS011;9888;48.606;9.630;2022-07-12T02:13:16;11.27;;;5.97;;
19495;SDS011;9888;48.606;9.630;2022-07-12T02:15:43;10.73;;;6.60;;
19495;SDS011;9888;48.606;9.630;2022-07-12T02:18:10;10.37;;;5.97;;
19495;SDS011;9888;48.606;9.630;2022-07-12T02:20:37;10.20;;;5.80;;
19495;SDS011;9888;48.606;9.630;2022-07-12T02:23:05;10.17;;;6.53;;
19495;SDS011;9888;48.606;9.630;2022-07-12T02:25:33;11.60;;;6.00;;
19495;SDS011;9888;48.606;9.630;2022-07-12T02:28:00;11.07;;;6.43;;
19495;SDS011;9888;48.606;9.630;2022-07-12T02:30:27;10.63;;;5.90;;
19495;SDS011;9888;48.606;9.630;2022-07-12T02:32:54;13.33;;;6.03;;
19495;SDS011;9888;48.606;9.630;2022-07-12T02:35:22;16.80;;;6.73;;
19495;SDS011;9888;48.606;9.630;2022-07-12T02:37:50;11.90;;;6.00;;
19495;SDS011;9888;48.606;9.630;2022-07-12T02:40:18;11.07;;;6.23;;
19495;SDS011;9888;48.606;9.630;2022-07-12T02:43:03;10.83;;;6.80;;
19495;SDS011;9888;48.606;9.630;2022-07-12T02:45:31;10.27;;;6.20;;
19495;SDS011;9888;48.606;9.630;2022-07-12T02:47:58;12.30;;;6.90;;
19495;SDS011;9888;48.606;9.630;2022-07-12T02:50:26;10.23;;;5.73;;
19495;SDS011;9888;48.606;9.630;2022-07-12T02:52:53;10.13;;;6.10;;
19495;SDS011;9888;48.606;9.630;2022-07-12T02:55:21;12.60;;;6.37;;
19495;SDS011;9888;48.606;9.630;2022-07-12T02:57:51;16.23;;;6.80;;
19495;SDS011;9888;48.606;9.630;2022-07-12T03:00:29;10.80;;;6.50;;
19495;SDS011;9888;48.606;9.630;2022-07-12T03:03:03;11.63;;;7.17;;
19495;SDS011;9888;48.606;9.630;2022-07-12T03:05:35;12.07;;;7.00;;
19495;SDS011;9888;48.606;9.630;2022-07-12T03:08:03;11.90;;;6.60;;
19495;SDS011;9888;48.606;9.630;2022-07-12T03:10:33;12.23;;;6.60;;
19495;SDS011;9888;48.606;9.630;2022-07-12T03:13:00;10.90;;;6.17;;
19495;SDS011;9888;48.606;9.630;2022-07-12T03:15:27;14.40;;;6.70;;
19495;SDS011;9888;48.606;9.630;2022-07-12T03:17:55;10.67;;;5.97;;
19495;SDS011;9888;48.606;9.630;2022-07-12T03:20:22;13.13;;;6.43;;
19495;SDS011;9888;48.606;9.630;2022-07-12T03:22:50;10.83;;;6.33;;
19495;SDS011;9888;48.606;9.630;2022-07-12T03:25:21;13.47;;;6.30;;
19495;SDS011;9888;48.606;9.630;2022-07-12T03:27:48;12.43;;;5.87;;
19495;SDS011;9888;48.606;9.630;2022-07-12T03:30:16;12.57;;;6.03;;
19495;SDS011;9888;48.606;9.630;2022-07-12T03:32:43;10.50;;;5.97;;
19495;SDS011;9888;48.606;9.630;2022-07-12T03:35:10;11.00;;;6.30;;
19495;SDS011;9888;48.606;9.630;2022-07-12T03:40:08;12.63;;;5.77;;
19495;SDS011;9888;48.606;9.630;2022-07-12T03:42:36;11.80;;;6.60;;
19495;SDS011;9888;48.606;9.630;2022-07-12T03:45:04;13.63;;;6.73;;
19495;SDS011;9888;48.606;9.630;2022-07-12T03:47:32;14.47;;;5.70;;
19495;SDS011;9888;48.606;9.630;2022-07-12T03:50:06;16.93;;;5.73;;
19495;SDS011;9888;48.606;9.630;2022-07-12T03:52:33;12.20;;;6.30;;
19495;SDS011;9888;48.606;9.630;2022-07-12T03:55:02;10.40;;;6.30;;
19495;SDS011;9888;48.606;9.630;2022-07-12T03:57:31;11.60;;;6.07;;
19495;SDS011;9888;48.606;9.630;2022-07-12T04:00:00;9.37;;;5.30;;
19495;SDS011;9888;48.606;9.630;2022-07-12T04:02:27;9.87;;;5.30;;
19495;SDS011;9888;48.606;9.630;2022-07-12T04:04:56;12.93;;;5.23;;
19495;SDS011;9888;48.606;9.630;2022-07-12T04:07:24;14.83;;;5.80;;
19495;SDS011;9888;48.606;9.630;2022-07-12T04:09:53;17.90;;;5.70;;
19495;SDS011;9888;48.606;9.630;2022-07-12T04:12:20;13.93;;;5.47;;
19495;SDS011;9888;48.606;9.630;2022-07-12T04:14:48;10.87;;;4.70;;
19495;SDS011;9888;48.606;9.630;2022-07-12T04:17:18;12.87;;;5.67;;
19495;SDS011;9888;48.606;9.630;2022-07-12T04:20:06;10.20;;;5.40;;
19495;SDS011;9888;48.606;9.630;2022-07-12T04:22:35;10.23;;;5.70;;
19495;SDS011;9888;48.606;9.630;2022-07-12T04:25:05;14.17;;;5.90;;
19495;SDS011;9888;48.606;9.630;2022-07-12T04:27:35;9.37;;;5.27;;
19495;SDS011;9888;48.606;9.630;2022-07-12T04:30:03;12.60;;;6.10;;
19495;SDS011;9888;48.606;9.630;2022-07-12T04:32:31;9.90;;;5.57;;
19495;SDS011;9888;48.606;9.630;2022-07-12T04:34:59;16.10;;;5.40;;
19495;SDS011;9888;48.606;9.630;2022-07-12T04:37:26;12.63;;;5.80;;
19495;SDS011;9888;48.606;9.630;2022-07-12T04:39:54;11.90;;;5.50;;
19495;SDS011;9888;48.606;9.630;2022-07-12T04:42:24;11.00;;;5.53;;
19495;SDS011;9888;48.606;9.630;2022-07-12T04:44:53;11.53;;;5.47;;
19495;SDS011;9888;48.606;9.630;2022-07-12T04:47:21;11.30;;;6.13;;
19495;SDS011;9888;48.606;9.630;2022-07-12T04:49:52;21.30;;;7.00;;
19495;SDS011;9888;48.606;9.630;2022-07-12T04:52:21;17.83;;;6.07;;
19495;SDS011;9888;48.606;9.630;2022-07-12T04:54:51;10.40;;;5.80;;
19495;SDS011;9888;48.606;9.630;2022-07-12T04:57:21;10.20;;;6.00;;
19495;SDS011;9888;48.606;9.630;2022-07-12T04:59:50;11.03;;;7.10;;
19495;SDS011;9888;48.606;9.630;2022-07-12T05:02:18;12.37;;;6.50;;
19495;SDS011;9888;48.606;9.630;2022-07-12T05:04:45;13.70;;;7.03;;
19495;SDS011;9888;48.606;9.630;2022-07-12T05:07:13;14.00;;;6.43;;
19495;SDS011;9888;48.606;9.630;2022-07-12T05:09:42;18.63;;;7.37;;
19495;SDS011;9888;48.606;9.630;2022-07-12T05:12:09;15.40;;;7.50;;
19495;SDS011;9888;48.606;9.630;2022-07-12T05:14:37;16.37;;;9.70;;
19495;SDS011;9888;48.606;9.630;2022-07-12T05:17:04;23.57;;;9.70;;
19495;SDS011;9888;48.606;9.630;2022-07-12T05:19:31;13.43;;;8.10;;
19495;SDS011;9888;48.606;9.630;2022-07-12T05:21:59;19.47;;;8.73;;
19495;SDS011;9888;48.606;9.630;2022-07-12T05:24:27;18.10;;;8.50;;
19495;SDS011;9888;48.606;9.630;2022-07-12T05:26:55;20.30;;;7.67;;
19495;SDS011;9888;48.606;9.630;2022-07-12T05:29:29;12.57;;;6.90;;
19495;SDS011;9888;48.606;9.630;2022-07-12T05:32:02;11.60;;;7.40;;
19495;SDS011;9888;48.606;9.630;2022-07-12T05:34:31;16.43;;;7.77;;
19495;SDS011;9888;48.606;9.630;2022-07-12T05:36:59;13.40;;;7.67;;
19495;SDS011;9888;48.606;9.630;2022-07-12T05:39:26;23.17;;;8.57;;
19495;SDS011;9888;48.606;9.630;2022-07-12T05:41:53;13.33;;;7.93;;
19495;SDS011;9888;48.606;9.630;2022-07-12T05:44:21;11.13;;;7.27;;
19495;SDS011;9888;48.606;9.630;2022-07-12T05:46:49;24.23;;;8.50;;
19495;SDS011;9888;48.606;9.630;2022-07-12T05:49:16;12.37;;;6.87;;
19495;SDS011;9888;48.606;9.630;2022-07-12T05:51:44;14.40;;;7.10;;
19495;SDS011;9888;48.606;9.630;2022-07-12T05:54:29;19.03;;;7.20;;
19495;SDS011;9888;48.606;9.630;2022-07-12T05:56:59;12.50;;;7.33;;
19495;SDS011;9888;48.606;9.630;2022-07-12T05:59:26;12.77;;;7.30;;
19495;SDS011;9888;48.606;9.630;2022-07-12T06:01:54;16.13;;;8.83;;
19495;SDS011;9888;48.606;9.630;2022-07-12T06:04:22;13.80;;;7.20;;
19495;SDS011;9888;48.606;9.630;2022-07-12T06:06:50;11.90;;;7.27;;
19495;SDS011;9888;48.606;9.630;2022-07-12T06:09:17;11.60;;;7.03;;
19495;SDS011;9888;48.606;9.630;2022-07-12T06:11:47;10.10;;;5.80;;
19495;SDS011;9888;48.606;9.630;2022-07-12T06:14:18;8.87;;;4.93;;
19495;SDS011;9888;48.606;9.630;2022-07-12T06:16:47;8.73;;;4.13;;
19495;SDS011;9888;48.606;9.630;2022-07-12T06:19:15;11.47;;;4.27;;
19495;SDS011;9888;48.606;9.630;2022-07-12T06:43:10;7.50;;;3.50;;
19495;SDS011;9888;48.606;9.630;2022-07-12T06:45:38;7.50;;;3.10;;
19495;SDS011;9888;48.606;9.630;2022-07-12T06:48:06;6.07;;;2.87;;
19495;SDS011;9888;48.606;9.630;2022-07-12T06:50:41;6.30;;;3.00;;
19495;SDS011;9888;48.606;9.630;2022-07-12T06:53:12;5.73;;;2.60;;
19495;SDS011;9888;48.606;9.630;2022-07-12T06:55:42;6.00;;;2.60;;
19495;SDS011;9888;48.606;9.630;2022-07-12T07:13:27;5.50;;;2.40;;
19495;SDS011;9888;48.606;9.630;2022-07-12T07:19:02;7.23;;;2.13;;
19495;SDS011;9888;48.606;9.630;2022-07-12T07:21:32;6.70;;;2.77;;
19495;SDS011;9888;48.606;9.630;2022-07-12T07:24:00;7.40;;;2.83;;
19495;SDS011;9888;48.606;9.630;2022-07-12T07:26:31;5.33;;;2.37;;
19495;SDS011;9888;48.606;9.630;2022-07-12T07:29:00;11.50;;;2.90;;
19495;SDS011;9888;48.606;9.630;2022-07-12T07:31:46;5.80;;;2.50;;
19495;SDS011;9888;48.606;9.630;2022-07-12T07:34:16;5.83;;;2.60;;
19495;SDS011;9888;48.606;9.630;2022-07-12T07:36:46;6.07;;;2.70;;
19495;SDS011;9888;48.606;9.630;2022-07-12T07:39:16;8.10;;;2.63;;
19495;SDS011;9888;48.606;9.630;2022-07-12T07:41:45;9.20;;;3.07;;
19495;SDS011;9888;48.606;9.630;2022-07-12T07:44:28;5.70;;;2.43;;
19495;SDS011;9888;48.606;9.630;2022-07-12T07:47:19;6.40;;;3.10;;
19495;SDS011;9888;48.606;9.630;2022-07-12T07:49:59;22.17;;;3.40;;
19495;SDS011;9888;48.606;9.630;2022-07-12T07:52:31;10.57;;;3.10;;
19495;SDS011;9888;48.606;9.630;2022-07-12T08:01:14;5.97;;;2.90;;
19495;SDS011;9888;48.606;9.630;2022-07-12T22:11:50;5.73;;;1.80;;
19495;SDS011;9888;48.606;9.630;2022-07-12T22:14:19;5.37;;;1.97;;
19495;SDS011;9888;48.606;9.630;2022-07-12T22:16:48;4.80;;;1.70;;
19495;SDS011;9888;48.606;9.630;2022-07-12T22:19:16;6.40;;;2.20;;
19495;SDS011;9888;48.606;9.630;2022-07-12T22:21:43;5.47;;;2.20;;
19495;SDS011;9888;48.606;9.630;2022-07-12T22:24:12;5.00;;;1.73;;
19495;SDS011;9888;48.606;9.630;2022-07-12T22:26:42;6.27;;;1.97;;
19495;SDS011;9888;48.606;9.630;2022-07-12T22:29:11;5.30;;;1.97;;
19495;SDS011;9888;48.606;9.630;2022-07-12T22:31:40;6.00;;;2.07;;
19495;SDS011;9888;48.606;9.630;2022-07-12T22:34:07;5.70;;;1.93;;
19495;SDS011;9888;48.606;9.630;2022-07-12T22:36:34;5.80;;;2.20;;
19495;SDS011;9888;48.606;9.630;2022-07-12T22:39:02;5.10;;;1.90;;
19495;SDS011;9888;48.606;9.630;2022-07-12T22:41:29;5.03;;;1.73;;
19495;SDS011;9888;48.606;9.630;2022-07-12T22:43:57;5.37;;;1.87;;
19495;SDS011;9888;48.606;9.630;2022-07-12T22:49:32;4.90;;;1.90;;
19495;SDS011;9888;48.606;9.630;2022-07-12T22:52:04;4.87;;;1.87;;
19495;SDS011;9888;48.606;9.630;2022-07-12T22:54:34;5.50;;;2.00;;
19495;SDS011;9888;48.606;9.630;2022-07-12T22:57:15;6.10;;;2.07;;
19495;SDS011;9888;48.606;9.630;2022-07-12T22:59:43;5.40;;;2.17;;
19495;SDS011;9888;48.606;9.630;2022-07-12T23:02:14;5.97;;;2.20;;
19495;SDS011;9888;48.606;9.630;2022-07-12T23:04:42;5.50;;;2.10;;
19495;SDS011;9888;48.606;9.630;2022-07-12T23:07:09;4.90;;;1.87;;
19495;SDS011;9888;48.606;9.630;2022-07-12T23:09:37;5.70;;;2.10;;
19495;SDS011;9888;48.606;9.630;2022-07-12T23:12:05;7.70;;;2.17;;
19495;SDS011;9888;48.606;9.630;2022-07-12T23:14:32;5.00;;;1.97;;
19495;SDS011;9888;48.606;9.630;2022-07-12T23:17:02;7.00;;;2.30;;
19495;SDS011;9888;48.606;9.630;2022-07-12T23:19:30;5.17;;;1.90;;
19495;SDS011;9888;48.606;9.630;2022-07-12T23:21:58;6.00;;;2.17;;
19495;SDS011;9888;48.606;9.630;2022-07-12T23:24:26;5.53;;;2.00;;
19495;SDS011;9888;48.606;9.630;2022-07-12T23:26:53;5.70;;;2.13;;
19495;SDS011;9888;48.606;9.630;2022-07-12T23:29:20;5.67;;;2.20;;
19495;SDS011;9888;48.606;9.630;2022-07-12T23:31:49;5.50;;;2.10;;
19495;SDS011;9888;48.606;9.630;2022-07-12T23:34:17;6.50;;;1.87;;
19495;SDS011;9888;48.606;9.630;2022-07-12T23:36:45;6.50;;;2.10;;
19495;SDS011;9888;48.606;9.630;2022-07-12T23:39:15;7.23;;;2.30;;
19495;SDS011;9888;48.606;9.630;2022-07-12T23:41:43;5.60;;;2.10;;
19495;SDS011;9888;48.606;9.630;2022-07-12T23:44:10;5.20;;;1.90;;
19495;SDS011;9888;48.606;9.630;2022-07-12T23:46:38;6.53;;;2.27;;
19495;SDS011;9888;48.606;9.630;2022-07-12T23:49:07;7.50;;;1.97;;
19495;SDS011;9888;48.606;9.630;2022-07-12T23:51:35;5.53;;;2.17;;
19495;SDS011;9888;48.606;9.630;2022-07-12T23:54:04;5.37;;;2.00;;
19495;SDS011;9888;48.606;9.630;2022-07-12T23:56:31;6.00;;;2.20;;
19495;SDS011;9888;48.606;9.630;2022-07-12T23:58:59;6.03;;;2.30;;
